createdAt,value
2018-11-12T00:00:15.740Z,92.00
2018-11-12T00:02:46.233Z,92.00
2018-11-12T00:05:14.853Z,92.00
2018-11-12T00:07:43.399Z,92.00
2018-11-12T00:10:12.125Z,92.00
2018-11-12T00:12:41.037Z,91.90
2018-11-12T00:15:11.090Z,91.90
2018-11-12T00:17:39.646Z,91.90
2018-11-12T00:20:09.578Z,91.80
2018-11-12T00:22:38.433Z,91.80
2018-11-12T00:25:07.153Z,91.70
2018-11-12T00:27:36.005Z,91.70
2018-11-12T00:30:05.430Z,91.70
2018-11-12T00:32:33.932Z,91.60
2018-11-12T00:35:02.555Z,91.60
2018-11-12T00:37:31.096Z,91.60
2018-11-12T00:39:59.681Z,91.60
2018-11-12T00:42:28.230Z,91.70
2018-11-12T00:44:56.782Z,91.70
2018-11-12T00:47:25.351Z,91.70
2018-11-12T00:49:54.167Z,91.70
2018-11-12T00:52:22.786Z,91.70
2018-11-12T00:54:51.321Z,91.70
2018-11-12T00:57:19.849Z,91.60
2018-11-12T00:59:48.415Z,91.60
2018-11-12T01:02:17.123Z,91.60
2018-11-12T01:04:45.679Z,91.60
2018-11-12T01:07:14.310Z,91.60
2018-11-12T01:09:42.990Z,91.50
2018-11-12T01:12:11.537Z,91.40
2018-11-12T01:14:40.053Z,91.40
2018-11-12T01:17:08.608Z,91.30
2018-11-12T01:19:37.114Z,91.30
2018-11-12T01:22:05.837Z,91.20
2018-11-12T01:24:34.342Z,91.20
2018-11-12T01:27:02.892Z,91.10
2018-11-12T01:29:31.418Z,91.20
2018-11-12T01:32:00.077Z,91.20
2018-11-12T01:34:28.637Z,91.30
2018-11-12T01:36:57.165Z,91.30
2018-11-12T01:39:25.693Z,91.30
2018-11-12T01:41:54.242Z,91.20
2018-11-12T01:44:22.894Z,91.30
2018-11-12T01:46:51.465Z,91.30
2018-11-12T01:49:20.054Z,91.30
2018-11-12T01:51:48.758Z,91.30
2018-11-12T01:54:17.281Z,91.30
2018-11-12T01:56:45.793Z,91.30
2018-11-12T01:59:14.357Z,91.30
2018-11-12T02:01:42.947Z,91.30
2018-11-12T02:04:11.487Z,91.30
2018-11-12T02:06:40.047Z,91.30
2018-11-12T02:09:10.844Z,91.20
2018-11-12T02:11:39.527Z,91.20
2018-11-12T02:14:08.446Z,91.30
2018-11-12T02:16:37.097Z,91.30
2018-11-12T02:19:06.248Z,91.30
2018-11-12T02:21:34.883Z,91.30
2018-11-12T02:24:03.489Z,91.30
2018-11-12T02:26:31.996Z,91.30
2018-11-12T02:29:00.547Z,91.30
2018-11-12T02:31:29.134Z,91.20
2018-11-12T02:33:57.718Z,91.10
2018-11-12T02:36:26.234Z,91.20
2018-11-12T02:38:54.773Z,91.10
2018-11-12T02:41:23.358Z,91.00
2018-11-12T02:43:52.001Z,91.00
2018-11-12T02:46:20.541Z,91.00
2018-11-12T02:48:49.118Z,91.10
2018-11-12T02:51:17.730Z,91.10
2018-11-12T02:53:46.333Z,91.10
2018-11-12T02:56:14.931Z,91.10
2018-11-12T02:58:43.454Z,91.10
2018-11-12T03:01:11.979Z,91.10
2018-11-12T03:03:40.842Z,91.10
2018-11-12T03:06:09.382Z,91.10
2018-11-12T03:08:37.905Z,91.00
2018-11-12T03:11:06.461Z,91.10
2018-11-12T03:13:35.046Z,91.10
2018-11-12T03:16:03.673Z,91.10
2018-11-12T03:18:32.205Z,91.10
2018-11-12T03:21:00.789Z,91.10
2018-11-12T03:23:29.337Z,91.20
2018-11-12T03:25:57.885Z,91.20
2018-11-12T03:28:26.445Z,91.20
2018-11-12T03:30:55.033Z,91.20
2018-11-12T03:33:23.581Z,91.20
2018-11-12T03:35:52.117Z,91.20
2018-11-12T03:38:20.713Z,91.20
2018-11-12T03:40:49.230Z,91.20
2018-11-12T03:43:17.754Z,91.30
2018-11-12T03:45:46.313Z,91.30
2018-11-12T03:48:14.857Z,91.20
2018-11-12T03:50:43.381Z,91.20
2018-11-12T03:53:12.015Z,91.20
2018-11-12T03:55:40.526Z,91.20
2018-11-12T03:58:09.169Z,91.20
2018-11-12T04:00:37.826Z,91.20
2018-11-12T04:03:06.381Z,91.20
2018-11-12T04:05:34.990Z,91.30
2018-11-12T04:08:03.549Z,91.30
2018-11-12T04:10:32.147Z,91.30
2018-11-12T04:13:00.692Z,91.30
2018-11-12T04:15:29.239Z,91.20
2018-11-12T04:17:57.977Z,91.30
2018-11-12T04:20:26.482Z,91.30
2018-11-12T04:23:00.306Z,91.30
2018-11-12T04:25:28.831Z,91.30
2018-11-12T04:27:57.490Z,91.30
2018-11-12T04:30:26.071Z,91.30
2018-11-12T04:32:54.606Z,91.30
2018-11-12T04:35:23.192Z,91.30
2018-11-12T04:37:51.829Z,91.30
2018-11-12T04:40:20.686Z,91.40
2018-11-12T04:42:49.662Z,91.40
2018-11-12T04:45:19.491Z,91.40
2018-11-12T04:47:48.779Z,91.30
2018-11-12T04:50:19.529Z,91.30
2018-11-12T04:52:48.506Z,91.40
2018-11-12T04:55:18.261Z,91.30
2018-11-12T04:57:47.193Z,91.30
2018-11-12T05:00:18.190Z,91.40
2018-11-12T05:02:46.866Z,91.40
2018-11-12T05:05:16.877Z,91.30
2018-11-12T05:07:45.836Z,91.30
2018-11-12T05:10:15.957Z,91.30
2018-11-12T05:12:45.184Z,91.30
2018-11-12T05:15:16.009Z,91.30
2018-11-12T05:17:44.562Z,91.30
2018-11-12T05:20:16.394Z,91.40
2018-11-12T05:22:45.097Z,91.40
2018-11-12T05:25:13.632Z,91.40
2018-11-12T05:27:42.204Z,91.50
2018-11-12T05:30:14.170Z,91.50
2018-11-12T05:32:43.127Z,91.50
2018-11-12T05:35:12.548Z,91.50
2018-11-12T05:37:41.265Z,91.50
2018-11-12T05:40:12.660Z,91.50
2018-11-12T05:42:41.665Z,91.50
2018-11-12T05:45:10.242Z,91.50
2018-11-12T05:47:39.397Z,91.50
2018-11-12T05:50:12.315Z,91.50
2018-11-12T05:52:41.839Z,91.50
2018-11-12T05:55:11.920Z,91.40
2018-11-12T05:57:41.441Z,91.40
2018-11-12T06:00:11.846Z,91.40
2018-11-12T06:02:40.771Z,91.40
2018-11-12T06:05:11.547Z,91.50
2018-11-12T06:07:40.316Z,91.50
2018-11-12T06:10:15.223Z,91.50
2018-11-12T06:12:44.404Z,91.50
2018-11-12T06:15:13.565Z,91.50
2018-11-12T06:17:42.960Z,91.50
2018-11-12T06:20:14.753Z,91.40
2018-11-12T06:22:43.369Z,91.50
2018-11-12T06:25:13.187Z,91.50
2018-11-12T06:27:41.721Z,91.50
2018-11-12T06:30:17.542Z,91.50
2018-11-12T06:32:46.066Z,91.50
2018-11-12T06:35:15.390Z,91.50
2018-11-12T06:37:44.649Z,91.50
2018-11-12T06:40:15.586Z,91.50
2018-11-12T06:42:44.257Z,91.40
2018-11-12T06:45:15.188Z,91.40
2018-11-12T06:47:44.762Z,91.40
2018-11-12T06:50:14.636Z,91.40
2018-11-12T06:52:43.223Z,91.30
2018-11-12T06:55:12.750Z,91.30
2018-11-12T06:57:41.786Z,91.20
2018-11-12T07:00:14.185Z,91.20
2018-11-12T07:02:42.770Z,91.30
2018-11-12T07:05:11.998Z,91.30
2018-11-12T07:07:40.847Z,91.30
2018-11-12T07:10:12.344Z,91.20
2018-11-12T07:12:41.988Z,91.10
2018-11-12T07:15:12.475Z,91.20
2018-11-12T07:17:41.045Z,91.20
2018-11-12T07:20:11.210Z,91.20
2018-11-12T07:22:39.918Z,91.30
2018-11-12T07:25:10.019Z,91.20
2018-11-12T07:27:38.503Z,91.30
2018-11-12T07:30:10.653Z,91.10
2018-11-12T07:32:39.346Z,91.10
2018-11-12T07:35:09.609Z,91.20
2018-11-12T07:37:38.452Z,91.20
2018-11-12T07:40:08.422Z,91.20
2018-11-12T07:42:37.421Z,91.20
2018-11-12T07:45:07.951Z,91.20
2018-11-12T07:47:36.538Z,91.20
2018-11-12T07:50:07.733Z,91.20
2018-11-12T07:52:36.638Z,91.10
2018-11-12T07:55:06.464Z,90.90
2018-11-12T07:57:35.167Z,91.00
2018-11-12T08:00:04.406Z,90.90
2018-11-12T08:02:33.028Z,91.00
2018-11-12T08:05:01.886Z,91.10
2018-11-12T08:07:30.417Z,91.10
2018-11-12T08:09:58.972Z,91.10
2018-11-12T08:12:27.514Z,91.20
2018-11-12T08:14:56.070Z,91.30
2018-11-12T08:17:24.619Z,91.10
2018-11-12T08:19:53.165Z,91.00
2018-11-12T08:22:21.669Z,90.90
2018-11-12T08:24:50.255Z,90.70
2018-11-12T08:27:18.816Z,90.70
2018-11-12T08:29:47.761Z,90.60
2018-11-12T08:32:16.370Z,90.70
2018-11-12T08:34:45.007Z,90.60
2018-11-12T08:37:13.575Z,90.60
2018-11-12T08:39:42.269Z,90.20
2018-11-12T08:42:10.714Z,90.10
2018-11-12T08:44:39.258Z,90.40
2018-11-12T08:47:07.838Z,90.10
2018-11-12T08:49:36.594Z,90.20
2018-11-12T08:52:05.586Z,89.80
2018-11-12T08:54:34.222Z,88.90
2018-11-12T08:57:03.409Z,88.80
2018-11-12T08:59:32.197Z,89.00
2018-11-12T09:02:00.743Z,89.40
2018-11-12T09:04:29.283Z,90.10
2018-11-12T09:06:57.876Z,89.90
2018-11-12T09:09:26.434Z,87.90
2018-11-12T09:11:55.189Z,86.80
2018-11-12T09:14:23.734Z,88.40
2018-11-12T09:16:52.304Z,88.30
2018-11-12T09:19:20.901Z,88.70
2018-11-12T09:21:49.441Z,87.30
2018-11-12T09:24:18.029Z,86.30
2018-11-12T09:26:46.537Z,87.60
2018-11-12T09:29:15.119Z,78.30
2018-11-12T09:31:43.658Z,78.10
2018-11-12T09:34:12.173Z,77.20
2018-11-12T09:36:40.791Z,74.40
2018-11-12T09:39:11.203Z,74.30
2018-11-12T09:41:39.806Z,72.30
2018-11-12T09:44:08.370Z,72.10
2018-11-12T09:46:37.001Z,71.50
2018-11-12T09:49:06.387Z,71.40
2018-11-12T09:51:34.949Z,69.60
2018-11-12T09:54:03.609Z,71.30
2018-11-12T09:56:32.118Z,68.70
2018-11-12T09:59:00.653Z,74.10
2018-11-12T10:01:54.759Z,68.40
2018-11-12T10:04:23.335Z,66.20
2018-11-12T10:06:53.008Z,62.60
2018-11-12T10:09:21.690Z,55.80
2018-11-12T10:11:50.532Z,51.70
2018-11-12T10:14:19.183Z,60.80
2018-11-12T10:16:47.262Z,57.60
2018-11-12T10:19:14.579Z,53.10
2018-11-12T10:21:43.117Z,48.10
2018-11-12T10:24:11.661Z,48.30
2018-11-12T10:26:40.197Z,55.50
2018-11-12T10:29:08.766Z,52.70
2018-11-12T10:31:37.291Z,57.10
2018-11-12T10:34:06.304Z,60.40
2018-11-12T10:36:34.870Z,52.30
2018-11-12T10:39:04.879Z,57.00
2018-11-12T10:41:33.414Z,59.70
2018-11-12T10:44:02.070Z,61.60
2018-11-12T10:46:30.599Z,61.80
2018-11-12T10:48:59.431Z,60.40
2018-11-12T10:51:28.005Z,56.80
2018-11-12T10:53:56.837Z,53.00
2018-11-12T10:56:25.245Z,53.90
2018-11-12T10:58:53.814Z,45.80
2018-11-12T11:01:27.683Z,47.00
2018-11-12T11:04:01.637Z,48.30
2018-11-12T11:06:30.259Z,46.20
2018-11-12T11:08:58.840Z,40.90
2018-11-12T11:11:27.437Z,49.90
2018-11-12T11:13:55.985Z,46.40
2018-11-12T11:16:24.563Z,44.90
2018-11-12T11:18:53.093Z,51.90
2018-11-12T11:21:21.775Z,54.50
2018-11-12T11:23:50.228Z,47.70
2018-11-12T11:26:18.778Z,42.60
2018-11-12T11:28:47.337Z,45.30
2018-11-12T11:31:15.886Z,43.50
2018-11-12T11:33:44.451Z,42.80
2018-11-12T11:36:13.142Z,38.00
2018-11-12T11:38:41.702Z,42.50
2018-11-12T11:41:10.293Z,38.80
2018-11-12T11:43:38.895Z,38.10
2018-11-12T11:46:07.501Z,40.90
2018-11-12T11:48:36.037Z,43.80
2018-11-12T11:51:04.745Z,39.10
2018-11-12T11:53:33.409Z,39.10
2018-11-12T11:56:01.942Z,41.50
2018-11-12T11:58:30.535Z,40.70
2018-11-12T12:00:59.150Z,40.50
2018-11-12T12:03:27.737Z,39.50
2018-11-12T12:05:56.276Z,38.70
2018-11-12T12:08:24.906Z,37.20
2018-11-12T12:10:53.464Z,36.90
2018-11-12T12:13:22.091Z,36.60
2018-11-12T12:15:50.610Z,41.20
2018-11-12T12:18:19.258Z,36.60
2018-11-12T12:20:47.810Z,35.10
2018-11-12T12:23:16.481Z,35.50
2018-11-12T12:25:45.206Z,36.40
2018-11-12T12:28:13.719Z,36.20
2018-11-12T12:30:42.499Z,38.60
2018-11-12T12:33:11.034Z,39.20
2018-11-12T12:35:39.588Z,39.30
2018-11-12T12:38:08.099Z,40.60
2018-11-12T12:40:36.745Z,40.50
2018-11-12T12:43:05.557Z,41.30
2018-11-12T12:45:34.309Z,41.70
2018-11-12T12:48:02.831Z,41.30
2018-11-12T12:50:31.497Z,42.60
2018-11-12T12:53:00.049Z,43.30
2018-11-12T12:55:28.692Z,42.70
2018-11-12T12:57:57.169Z,41.80
2018-11-12T13:00:26.981Z,42.40
2018-11-12T13:02:55.674Z,46.60
2018-11-12T13:05:24.276Z,40.30
2018-11-12T13:07:52.912Z,40.00
2018-11-12T13:10:22.630Z,41.70
2018-11-12T13:12:51.255Z,41.90
2018-11-12T13:15:20.515Z,42.40
2018-11-12T13:17:49.818Z,42.50
2018-11-12T13:20:19.733Z,43.00
2018-11-12T13:22:48.905Z,43.10
2018-11-12T13:25:17.776Z,44.00
2018-11-12T13:27:46.894Z,46.00
2018-11-12T13:30:20.100Z,45.10
2018-11-12T13:32:48.955Z,44.40
2018-11-12T13:35:19.568Z,41.70
2018-11-12T13:37:48.137Z,41.10
2018-11-12T13:40:18.158Z,40.80
2018-11-12T13:42:48.360Z,39.70
2018-11-12T13:45:16.987Z,41.30
2018-11-12T13:47:46.410Z,44.70
2018-11-12T13:50:16.360Z,42.00
2018-11-12T13:52:45.314Z,43.80
2018-11-12T13:55:14.796Z,43.90
2018-11-12T13:57:43.353Z,43.70
2018-11-12T14:00:14.166Z,43.20
2018-11-12T14:02:43.716Z,43.60
2018-11-12T14:05:14.464Z,43.20
2018-11-12T14:07:43.721Z,44.80
2018-11-12T14:10:13.762Z,43.90
2018-11-12T14:12:42.816Z,45.20
2018-11-12T14:15:14.120Z,45.70
2018-11-12T14:17:43.249Z,45.00
2018-11-12T14:20:11.986Z,46.30
2018-11-12T14:22:40.527Z,46.20
2018-11-12T14:25:10.658Z,47.50
2018-11-12T14:27:39.230Z,44.70
2018-11-12T14:30:09.722Z,45.70
2018-11-12T14:32:38.290Z,48.80
2018-11-12T14:35:07.817Z,49.80
2018-11-12T14:37:36.756Z,50.10
2018-11-12T14:40:06.696Z,48.80
2018-11-12T14:42:35.365Z,46.50
2018-11-12T14:45:04.354Z,47.20
2018-11-12T14:47:32.911Z,48.80
2018-11-12T14:50:01.782Z,50.00
2018-11-12T14:52:30.436Z,49.00
2018-11-12T14:54:59.078Z,49.80
2018-11-12T14:57:27.603Z,48.00
2018-11-12T14:59:56.211Z,47.50
2018-11-12T15:02:25.143Z,49.00
2018-11-12T15:04:53.873Z,49.80
2018-11-12T15:07:22.640Z,50.20
2018-11-12T15:09:51.285Z,52.10
2018-11-12T15:12:19.926Z,52.30
2018-11-12T15:14:48.752Z,53.90
2018-11-12T15:17:17.215Z,55.40
2018-11-12T15:19:45.808Z,56.10
2018-11-12T15:22:14.382Z,59.10
2018-11-12T15:24:42.966Z,57.50
2018-11-12T15:27:11.567Z,56.70
2018-11-12T15:29:40.186Z,54.50
2018-11-12T15:32:08.982Z,55.20
2018-11-12T15:34:37.623Z,57.30
2018-11-12T15:37:06.584Z,58.60
2018-11-12T15:39:34.990Z,60.10
2018-11-12T15:42:03.641Z,60.70
2018-11-12T15:44:32.167Z,60.80
2018-11-12T15:47:00.906Z,61.30
2018-11-12T15:49:29.454Z,61.40
2018-11-12T15:51:58.313Z,62.20
2018-11-12T15:54:27.018Z,62.60
2018-11-12T15:56:55.588Z,62.80
2018-11-12T15:59:24.245Z,62.70
2018-11-12T16:01:52.838Z,63.00
2018-11-12T16:04:21.355Z,63.80
2018-11-12T16:06:49.943Z,64.30
2018-11-12T16:09:18.631Z,64.10
2018-11-12T16:11:47.449Z,63.80
2018-11-12T16:14:16.161Z,64.30
2018-11-12T16:16:44.826Z,66.20
2018-11-12T16:19:13.567Z,67.30
2018-11-12T16:21:42.328Z,67.70
2018-11-12T16:24:10.989Z,67.30
2018-11-12T16:26:39.706Z,69.20
2018-11-12T16:29:08.155Z,70.20
2018-11-12T16:31:36.857Z,69.40
2018-11-12T16:34:05.508Z,70.20
2018-11-12T16:36:34.191Z,70.20
2018-11-12T16:39:02.986Z,69.20
2018-11-12T16:41:31.526Z,69.90
2018-11-12T16:44:00.114Z,70.40
2018-11-12T16:46:28.773Z,70.70
2018-11-12T16:48:57.423Z,71.50
2018-11-12T16:51:25.960Z,71.60
2018-11-12T16:53:54.674Z,72.70
2018-11-12T16:56:23.345Z,72.90
2018-11-12T16:58:52.019Z,72.80
2018-11-12T17:01:20.611Z,73.30
2018-11-12T17:03:49.329Z,72.50
2018-11-12T17:06:17.862Z,73.20
2018-11-12T17:08:46.597Z,73.40
2018-11-12T17:11:15.212Z,73.90
2018-11-12T17:13:43.865Z,73.80
2018-11-12T17:16:12.499Z,74.00
2018-11-12T17:18:41.232Z,73.30
2018-11-12T17:21:09.808Z,74.00
2018-11-12T17:23:38.678Z,74.70
2018-11-12T17:26:07.277Z,75.00
2018-11-12T17:28:36.050Z,74.60
2018-11-12T17:31:04.968Z,75.60
2018-11-12T17:33:33.937Z,76.00
2018-11-12T17:36:02.502Z,75.10
2018-11-12T17:38:31.203Z,75.80
2018-11-12T17:40:59.806Z,76.10
2018-11-12T17:43:28.342Z,76.50
2018-11-12T17:45:57.221Z,76.80
2018-11-12T17:48:25.784Z,76.40
2018-11-12T17:50:54.393Z,76.90
2018-11-12T17:53:22.970Z,76.80
2018-11-12T17:55:51.566Z,76.20
2018-11-12T17:58:20.262Z,76.70
2018-11-12T18:00:48.881Z,76.60
2018-11-12T18:03:17.490Z,77.20
2018-11-12T18:05:46.031Z,76.80
2018-11-12T18:08:14.724Z,77.40
2018-11-12T18:10:43.274Z,77.80
2018-11-12T18:13:11.882Z,78.00
2018-11-12T18:15:40.466Z,77.80
2018-11-12T18:18:09.191Z,78.00
2018-11-12T18:20:37.866Z,78.10
2018-11-12T18:23:06.664Z,78.00
2018-11-12T18:25:35.281Z,77.80
2018-11-12T18:28:03.967Z,77.70
2018-11-12T18:30:32.982Z,78.20
2018-11-12T18:33:01.466Z,78.50
2018-11-12T18:35:30.099Z,78.50
2018-11-12T18:37:58.815Z,78.50
2018-11-12T18:40:28.667Z,78.50
2018-11-12T18:42:57.204Z,78.60
2018-11-12T18:45:26.846Z,78.20
2018-11-12T18:47:55.702Z,88.40
2018-11-12T18:50:25.659Z,88.80
2018-11-12T18:52:54.259Z,88.60
2018-11-12T18:55:22.923Z,88.50
2018-11-12T18:57:51.937Z,88.60
2018-11-12T19:00:21.936Z,89.20
2018-11-12T19:02:51.090Z,89.30
2018-11-12T19:05:22.143Z,90.20
2018-11-12T19:07:52.043Z,81.30
2018-11-12T19:10:22.299Z,81.30
2018-11-12T19:12:51.557Z,81.40
2018-11-12T19:15:21.778Z,81.50
2018-11-12T19:17:54.239Z,81.60
2018-11-12T19:20:22.847Z,81.70
2018-11-12T19:22:51.634Z,81.70
2018-11-12T19:25:20.259Z,81.70
2018-11-12T19:27:48.831Z,81.70
2018-11-12T19:30:19.789Z,82.30
2018-11-12T19:32:48.488Z,82.60
2018-11-12T19:35:18.350Z,82.80
2018-11-12T19:37:47.125Z,83.00
2018-11-12T19:40:17.967Z,83.20
2018-11-12T19:42:47.662Z,83.50
2018-11-12T19:45:16.410Z,83.70
2018-11-12T19:47:45.781Z,83.80
2018-11-12T19:50:15.750Z,83.90
2018-11-12T19:52:45.485Z,84.00
2018-11-12T19:55:14.358Z,84.00
2018-11-12T19:57:43.165Z,84.20
2018-11-12T20:00:15.750Z,84.20
2018-11-12T20:02:45.367Z,84.20
2018-11-12T20:05:14.162Z,84.20
2018-11-12T20:07:43.326Z,84.30
2018-11-12T20:10:13.738Z,84.30
2018-11-12T20:12:42.465Z,84.30
2018-11-12T20:15:12.350Z,84.40
2018-11-12T20:17:41.931Z,84.30
2018-11-12T20:20:13.381Z,84.20
2018-11-12T20:22:42.250Z,84.30
2018-11-12T20:25:12.191Z,84.20
2018-11-12T20:27:40.789Z,84.20
2018-11-12T20:30:13.465Z,84.30
2018-11-12T20:32:42.166Z,92.00
2018-11-12T20:35:10.865Z,92.00
2018-11-12T20:37:39.751Z,92.00
2018-11-12T20:40:10.118Z,91.90
2018-11-12T20:42:38.730Z,91.90
2018-11-12T20:45:09.249Z,91.90
2018-11-12T20:47:38.122Z,91.90
2018-11-12T20:50:08.094Z,91.90
2018-11-12T20:52:36.773Z,91.80
2018-11-12T20:55:06.401Z,91.80
2018-11-12T20:57:35.013Z,91.70
2018-11-12T21:00:04.207Z,91.70
2018-11-12T21:02:32.946Z,91.60
2018-11-12T21:05:01.547Z,91.60
2018-11-12T21:07:30.101Z,91.60
2018-11-12T21:09:58.656Z,91.60
2018-11-12T21:12:27.619Z,91.50
2018-11-12T21:14:56.345Z,91.50
2018-11-12T21:17:24.987Z,91.50
2018-11-12T21:19:53.874Z,91.50
2018-11-12T21:22:22.460Z,91.50
2018-11-12T21:24:51.017Z,91.50
2018-11-12T21:27:19.839Z,91.40
2018-11-12T21:29:48.469Z,91.40
2018-11-12T21:32:17.071Z,91.30
2018-11-12T21:34:45.886Z,91.30
2018-11-12T21:37:14.615Z,91.30
2018-11-12T21:39:43.123Z,91.20
2018-11-12T21:42:11.749Z,91.20
2018-11-12T21:44:40.321Z,91.30
2018-11-12T21:47:08.898Z,91.30
2018-11-12T21:49:37.606Z,91.30
2018-11-12T21:52:06.265Z,91.30
2018-11-12T21:54:34.968Z,91.30
2018-11-12T21:57:03.617Z,91.30
2018-11-12T21:59:32.184Z,91.30
2018-11-12T22:02:00.717Z,91.20
2018-11-12T22:04:29.326Z,91.10
2018-11-12T22:06:57.950Z,91.10
2018-11-12T22:09:26.617Z,91.10
2018-11-12T22:11:55.182Z,91.10
2018-11-12T22:14:23.770Z,91.10
2018-11-12T22:16:52.358Z,91.10
2018-11-12T22:19:21.112Z,91.00
2018-11-12T22:21:49.570Z,90.90
2018-11-12T22:24:18.130Z,90.70
2018-11-12T22:26:46.789Z,90.80
2018-11-12T22:29:15.337Z,90.70
2018-11-12T22:31:43.869Z,90.70
2018-11-12T22:34:12.445Z,90.70
2018-11-12T22:36:41.205Z,90.80
2018-11-12T22:39:10.683Z,90.80
2018-11-12T22:41:39.235Z,90.70
2018-11-12T22:44:08.018Z,90.70
2018-11-12T22:46:36.634Z,90.70
2018-11-12T22:49:05.321Z,90.70
2018-11-12T22:51:33.864Z,90.70
2018-11-12T22:54:02.732Z,90.80
2018-11-12T22:56:31.310Z,90.90
2018-11-12T22:58:59.838Z,90.80
2018-11-12T23:01:28.469Z,90.90
2018-11-12T23:03:57.109Z,90.90
2018-11-12T23:06:25.673Z,91.00
2018-11-12T23:08:54.341Z,91.00
2018-11-12T23:11:23.058Z,91.00
2018-11-12T23:13:51.578Z,91.10
2018-11-12T23:16:20.238Z,91.00
2018-11-12T23:18:48.875Z,91.00
2018-11-12T23:21:17.440Z,91.00
2018-11-12T23:23:45.995Z,91.10
2018-11-12T23:26:14.615Z,91.10
2018-11-12T23:28:43.160Z,91.00
2018-11-12T23:31:11.741Z,91.00
2018-11-12T23:33:40.351Z,91.00
2018-11-12T23:36:08.981Z,91.00
2018-11-12T23:38:37.502Z,91.00
2018-11-12T23:41:06.438Z,90.90
2018-11-12T23:43:34.977Z,91.10
2018-11-12T23:46:03.593Z,91.10
2018-11-12T23:48:32.169Z,91.10
2018-11-12T23:51:00.738Z,91.20
2018-11-12T23:53:29.334Z,91.20
2018-11-12T23:55:57.898Z,91.20
2018-11-12T23:58:26.450Z,91.20
